sensor_id;sensor_type;location;lat;lon;timestamp;pressure;altitude;pressure_sealevel;temperature;humidity
44140;BME280;29803;51.048;4.686;2023-04-23T00:00:03;100733.38;;;7.35;100.00
44140;BME280;29803;51.048;4.686;2023-04-23T00:02:34;100728.59;;;7.38;100.00
44140;BME280;29803;51.048;4.686;2023-04-23T00:05:05;100726.59;;;7.40;100.00
44140;BME280;29803;51.048;4.686;2023-04-23T00:07:36;100713.94;;;7.42;100.00
44140;BME280;29803;51.048;4.686;2023-04-23T00:10:06;100719.16;;;7.44;100.00
44140;BME280;29803;51.048;4.686;2023-04-23T00:12:38;100710.16;;;7.45;100.00
44140;BME280;29803;51.048;4.686;2023-04-23T00:15:09;100710.00;;;7.46;100.00
44140;BME280;29803;51.048;4.686;2023-04-23T00:17:39;100714.34;;;7.47;100.00
44140;BME280;29803;51.048;4.686;2023-04-23T00:20:10;100707.47;;;7.45;100.00
44140;BME280;29803;51.048;4.686;2023-04-23T00:22:41;100713.41;;;7.39;100.00
44140;BME280;29803;51.048;4.686;2023-04-23T00:25:11;100709.19;;;7.36;100.00
44140;BME280;29803;51.048;4.686;2023-04-23T00:27:42;100713.09;;;7.42;100.00
44140;BME280;29803;51.048;4.686;2023-04-23T00:30:12;100703.66;;;7.47;100.00
44140;BME280;29803;51.048;4.686;2023-04-23T00:32:43;100696.91;;;7.53;100.00
44140;BME280;29803;51.048;4.686;2023-04-23T00:35:13;100708.66;;;7.60;100.00
44140;BME280;29803;51.048;4.686;2023-04-23T00:37:44;100696.81;;;7.63;100.00
44140;BME280;29803;51.048;4.686;2023-04-23T00:40:14;100699.19;;;7.66;100.00
44140;BME280;29803;51.048;4.686;2023-04-23T00:42:45;100705.06;;;7.69;100.00
44140;BME280;29803;51.048;4.686;2023-04-23T00:45:16;100694.41;;;7.69;100.00
44140;BME280;29803;51.048;4.686;2023-04-23T00:47:47;100692.78;;;7.76;100.00
44140;BME280;29803;51.048;4.686;2023-04-23T00:50:17;100688.16;;;7.78;100.00
44140;BME280;29803;51.048;4.686;2023-04-23T00:52:48;100695.72;;;7.83;100.00
44140;BME280;29803;51.048;4.686;2023-04-23T00:55:18;100697.22;;;7.86;100.00
44140;BME280;29803;51.048;4.686;2023-04-23T00:57:50;100693.25;;;7.90;100.00
44140;BME280;29803;51.048;4.686;2023-04-23T01:00:20;100692.94;;;7.93;100.00
44140;BME280;29803;51.048;4.686;2023-04-23T01:02:51;100693.81;;;7.93;100.00
44140;BME280;29803;51.048;4.686;2023-04-23T01:05:22;100691.13;;;7.93;100.00
44140;BME280;29803;51.048;4.686;2023-04-23T01:07:52;100690.13;;;7.94;100.00
44140;BME280;29803;51.048;4.686;2023-04-23T01:10:23;100687.13;;;7.97;100.00
44140;BME280;29803;51.048;4.686;2023-04-23T01:12:53;100695.69;;;8.01;100.00
44140;BME280;29803;51.048;4.686;2023-04-23T01:15:24;100694.94;;;8.09;100.00
44140;BME280;29803;51.048;4.686;2023-04-23T01:17:55;100699.13;;;8.11;100.00
44140;BME280;29803;51.048;4.686;2023-04-23T01:20:27;100696.00;;;8.16;100.00
44140;BME280;29803;51.048;4.686;2023-04-23T01:22:58;100681.16;;;8.21;100.00
44140;BME280;29803;51.048;4.686;2023-04-23T01:25:28;100684.75;;;8.30;100.00
44140;BME280;29803;51.048;4.686;2023-04-23T01:27:59;100681.03;;;8.41;100.00
44140;BME280;29803;51.048;4.686;2023-04-23T01:30:30;100678.03;;;8.44;100.00
44140;BME280;29803;51.048;4.686;2023-04-23T01:33:00;100676.88;;;8.46;100.00
44140;BME280;29803;51.048;4.686;2023-04-23T01:35:31;100685.19;;;8.43;100.00
44140;BME280;29803;51.048;4.686;2023-04-23T01:38:02;100671.16;;;8.41;100.00
44140;BME280;29803;51.048;4.686;2023-04-23T01:40:33;100679.00;;;8.43;100.00
44140;BME280;29803;51.048;4.686;2023-04-23T01:43:04;100686.19;;;8.42;100.00
44140;BME280;29803;51.048;4.686;2023-04-23T01:45:35;100681.69;;;8.43;100.00
44140;BME280;29803;51.048;4.686;2023-04-23T01:48:06;100687.75;;;8.45;100.00
44140;BME280;29803;51.048;4.686;2023-04-23T01:50:36;100690.31;;;8.54;100.00
44140;BME280;29803;51.048;4.686;2023-04-23T01:53:07;100693.50;;;8.58;100.00
44140;BME280;29803;51.048;4.686;2023-04-23T01:55:37;100691.06;;;8.65;100.00
44140;BME280;29803;51.048;4.686;2023-04-23T01:58:09;100686.91;;;8.70;100.00
44140;BME280;29803;51.048;4.686;2023-04-23T02:00:40;100682.59;;;8.77;100.00
44140;BME280;29803;51.048;4.686;2023-04-23T02:03:11;100683.78;;;8.83;100.00
44140;BME280;29803;51.048;4.686;2023-04-23T02:05:42;100675.44;;;8.86;100.00
44140;BME280;29803;51.048;4.686;2023-04-23T02:08:14;100671.28;;;8.92;100.00
44140;BME280;29803;51.048;4.686;2023-04-23T02:10:48;100675.50;;;8.94;100.00
44140;BME280;29803;51.048;4.686;2023-04-23T02:13:23;100678.69;;;8.98;100.00
44140;BME280;29803;51.048;4.686;2023-04-23T02:15:54;100677.53;;;9.00;100.00
44140;BME280;29803;51.048;4.686;2023-04-23T02:18:24;100677.19;;;9.03;100.00
44140;BME280;29803;51.048;4.686;2023-04-23T02:20:55;100669.03;;;9.05;100.00
44140;BME280;29803;51.048;4.686;2023-04-23T02:23:26;100666.84;;;9.08;100.00
44140;BME280;29803;51.048;4.686;2023-04-23T02:25:56;100671.88;;;9.12;100.00
44140;BME280;29803;51.048;4.686;2023-04-23T02:28:27;100673.25;;;9.16;100.00
44140;BME280;29803;51.048;4.686;2023-04-23T02:30:57;100670.25;;;9.19;100.00
44140;BME280;29803;51.048;4.686;2023-04-23T02:33:28;100676.28;;;9.21;100.00
44140;BME280;29803;51.048;4.686;2023-04-23T02:35:58;100671.75;;;9.21;100.00
44140;BME280;29803;51.048;4.686;2023-04-23T02:38:28;100672.78;;;9.20;100.00
44140;BME280;29803;51.048;4.686;2023-04-23T02:40:59;100670.25;;;9.19;100.00
44140;BME280;29803;51.048;4.686;2023-04-23T02:43:29;100667.38;;;9.12;100.00
44140;BME280;29803;51.048;4.686;2023-04-23T02:45:59;100667.84;;;9.07;100.00
44140;BME280;29803;51.048;4.686;2023-04-23T02:48:38;100667.97;;;8.98;100.00
44140;BME280;29803;51.048;4.686;2023-04-23T02:51:10;100660.44;;;8.93;100.00
44140;BME280;29803;51.048;4.686;2023-04-23T02:53:40;100659.56;;;8.85;100.00
44140;BME280;29803;51.048;4.686;2023-04-23T02:56:11;100657.84;;;8.75;100.00
44140;BME280;29803;51.048;4.686;2023-04-23T02:58:41;100660.94;;;8.63;100.00
44140;BME280;29803;51.048;4.686;2023-04-23T03:01:12;100662.94;;;8.61;100.00
44140;BME280;29803;51.048;4.686;2023-04-23T03:03:42;100660.09;;;8.62;100.00
44140;BME280;29803;51.048;4.686;2023-04-23T03:06:12;100658.25;;;8.63;100.00
44140;BME280;29803;51.048;4.686;2023-04-23T03:08:43;100660.25;;;8.61;100.00
44140;BME280;29803;51.048;4.686;2023-04-23T03:11:13;100653.56;;;8.56;100.00
44140;BME280;29803;51.048;4.686;2023-04-23T03:13:43;100658.38;;;8.53;100.00
44140;BME280;29803;51.048;4.686;2023-04-23T03:16:14;100651.81;;;8.47;100.00
44140;BME280;29803;51.048;4.686;2023-04-23T03:18:45;100659.34;;;8.44;100.00
44140;BME280;29803;51.048;4.686;2023-04-23T03:21:16;100657.97;;;8.40;100.00
44140;BME280;29803;51.048;4.686;2023-04-23T03:23:47;100650.06;;;8.38;100.00
44140;BME280;29803;51.048;4.686;2023-04-23T03:26:17;100655.03;;;8.33;100.00
44140;BME280;29803;51.048;4.686;2023-04-23T03:28:48;100655.66;;;8.27;100.00
44140;BME280;29803;51.048;4.686;2023-04-23T03:31:18;100661.78;;;8.19;100.00
44140;BME280;29803;51.048;4.686;2023-04-23T03:33:49;100651.56;;;8.15;100.00
44140;BME280;29803;51.048;4.686;2023-04-23T03:36:19;100657.03;;;8.13;100.00
44140;BME280;29803;51.048;4.686;2023-04-23T03:38:50;100663.84;;;8.08;100.00
44140;BME280;29803;51.048;4.686;2023-04-23T03:41:20;100656.16;;;8.04;100.00
44140;BME280;29803;51.048;4.686;2023-04-23T03:43:51;100668.97;;;8.01;100.00
44140;BME280;29803;51.048;4.686;2023-04-23T03:46:21;100662.97;;;7.99;100.00
44140;BME280;29803;51.048;4.686;2023-04-23T03:48:51;100656.78;;;7.98;100.00
44140;BME280;29803;51.048;4.686;2023-04-23T03:51:22;100661.44;;;7.96;100.00
44140;BME280;29803;51.048;4.686;2023-04-23T03:53:52;100659.75;;;7.95;100.00
44140;BME280;29803;51.048;4.686;2023-04-23T03:56:23;100660.03;;;7.92;100.00
44140;BME280;29803;51.048;4.686;2023-04-23T03:58:53;100660.66;;;7.86;100.00
44140;BME280;29803;51.048;4.686;2023-04-23T04:01:23;100651.72;;;7.77;100.00
44140;BME280;29803;51.048;4.686;2023-04-23T04:03:54;100650.00;;;7.68;100.00
44140;BME280;29803;51.048;4.686;2023-04-23T04:06:24;100648.91;;;7.61;100.00
44140;BME280;29803;51.048;4.686;2023-04-23T04:08:55;100653.66;;;7.49;100.00
44140;BME280;29803;51.048;4.686;2023-04-23T04:11:25;100650.34;;;7.38;100.00
44140;BME280;29803;51.048;4.686;2023-04-23T04:13:56;100655.75;;;7.28;100.00
44140;BME280;29803;51.048;4.686;2023-04-23T04:16:26;100650.75;;;7.15;100.00
44140;BME280;29803;51.048;4.686;2023-04-23T04:18:57;100645.63;;;7.04;100.00
44140;BME280;29803;51.048;4.686;2023-04-23T04:21:27;100654.50;;;6.95;100.00
44140;BME280;29803;51.048;4.686;2023-04-23T04:23:58;100663.94;;;6.89;100.00
44140;BME280;29803;51.048;4.686;2023-04-23T04:26:31;100655.38;;;6.86;100.00
44140;BME280;29803;51.048;4.686;2023-04-23T04:29:01;100660.69;;;6.95;100.00
44140;BME280;29803;51.048;4.686;2023-04-23T04:31:32;100659.69;;;6.96;100.00
44140;BME280;29803;51.048;4.686;2023-04-23T04:34:02;100669.69;;;6.94;100.00
44140;BME280;29803;51.048;4.686;2023-04-23T04:36:33;100672.19;;;6.96;100.00
44140;BME280;29803;51.048;4.686;2023-04-23T04:39:04;100669.09;;;7.00;100.00
44140;BME280;29803;51.048;4.686;2023-04-23T04:41:35;100672.44;;;7.03;100.00
44140;BME280;29803;51.048;4.686;2023-04-23T04:44:06;100665.53;;;7.10;100.00
44140;BME280;29803;51.048;4.686;2023-04-23T04:46:38;100663.41;;;7.13;100.00
44140;BME280;29803;51.048;4.686;2023-04-23T04:49:18;100666.78;;;7.15;100.00
44140;BME280;29803;51.048;4.686;2023-04-23T04:51:49;100665.09;;;7.14;100.00
44140;BME280;29803;51.048;4.686;2023-04-23T04:54:37;100664.25;;;7.14;100.00
44140;BME280;29803;51.048;4.686;2023-04-23T04:57:10;100672.44;;;7.30;100.00
44140;BME280;29803;51.048;4.686;2023-04-23T04:59:44;100664.53;;;7.38;100.00
44140;BME280;29803;51.048;4.686;2023-04-23T05:02:14;100667.28;;;7.46;100.00
44140;BME280;29803;51.048;4.686;2023-04-23T05:04:45;100665.38;;;7.57;100.00
44140;BME280;29803;51.048;4.686;2023-04-23T05:07:15;100668.91;;;7.57;100.00
44140;BME280;29803;51.048;4.686;2023-04-23T05:09:46;100668.06;;;7.57;100.00
44140;BME280;29803;51.048;4.686;2023-04-23T05:12:16;100670.81;;;7.65;100.00
44140;BME280;29803;51.048;4.686;2023-04-23T05:14:47;100672.03;;;7.70;100.00
44140;BME280;29803;51.048;4.686;2023-04-23T05:17:17;100675.63;;;7.79;100.00
44140;BME280;29803;51.048;4.686;2023-04-23T05:19:47;100675.03;;;7.85;100.00
44140;BME280;29803;51.048;4.686;2023-04-23T05:22:18;100675.94;;;7.94;100.00
44140;BME280;29803;51.048;4.686;2023-04-23T05:24:48;100665.78;;;7.97;100.00
44140;BME280;29803;51.048;4.686;2023-04-23T05:27:19;100670.66;;;8.02;100.00
44140;BME280;29803;51.048;4.686;2023-04-23T05:29:49;100666.53;;;8.08;100.00
44140;BME280;29803;51.048;4.686;2023-04-23T05:32:19;100667.28;;;8.18;100.00
44140;BME280;29803;51.048;4.686;2023-04-23T05:34:50;100657.31;;;8.28;100.00
44140;BME280;29803;51.048;4.686;2023-04-23T05:37:20;100659.94;;;8.38;100.00
44140;BME280;29803;51.048;4.686;2023-04-23T05:39:51;100660.19;;;8.52;100.00
44140;BME280;29803;51.048;4.686;2023-04-23T05:42:22;100653.44;;;8.66;100.00
44140;BME280;29803;51.048;4.686;2023-04-23T05:44:52;100663.56;;;8.80;100.00
44140;BME280;29803;51.048;4.686;2023-04-23T05:47:23;100664.94;;;8.93;100.00
44140;BME280;29803;51.048;4.686;2023-04-23T05:49:53;100659.19;;;9.14;100.00
44140;BME280;29803;51.048;4.686;2023-04-23T05:52:26;100659.31;;;9.63;100.00
44140;BME280;29803;51.048;4.686;2023-04-23T05:54:56;100659.56;;;10.26;100.00
44140;BME280;29803;51.048;4.686;2023-04-23T05:57:27;100644.88;;;10.86;100.00
44140;BME280;29803;51.048;4.686;2023-04-23T05:59:57;100638.91;;;11.38;100.00
44140;BME280;29803;51.048;4.686;2023-04-23T06:02:28;100635.31;;;11.77;100.00
44140;BME280;29803;51.048;4.686;2023-04-23T06:04:58;100629.94;;;11.85;100.00
44140;BME280;29803;51.048;4.686;2023-04-23T06:07:29;100622.97;;;12.28;100.00
44140;BME280;29803;51.048;4.686;2023-04-23T06:10:00;100624.66;;;12.44;100.00
44140;BME280;29803;51.048;4.686;2023-04-23T06:12:30;100623.28;;;12.48;100.00
44140;BME280;29803;51.048;4.686;2023-04-23T06:15:01;100620.59;;;12.78;100.00
44140;BME280;29803;51.048;4.686;2023-04-23T06:17:31;100622.44;;;13.07;100.00
44140;BME280;29803;51.048;4.686;2023-04-23T06:20:02;100624.22;;;12.70;100.00
44140;BME280;29803;51.048;4.686;2023-04-23T06:22:34;100614.47;;;12.69;100.00
44140;BME280;29803;51.048;4.686;2023-04-23T06:25:04;100627.47;;;12.95;100.00
44140;BME280;29803;51.048;4.686;2023-04-23T06:27:35;100620.84;;;13.12;100.00
44140;BME280;29803;51.048;4.686;2023-04-23T06:30:05;100623.41;;;13.93;100.00
44140;BME280;29803;51.048;4.686;2023-04-23T06:32:36;100628.31;;;13.61;100.00
44140;BME280;29803;51.048;4.686;2023-04-23T06:35:06;100610.88;;;13.42;100.00
44140;BME280;29803;51.048;4.686;2023-04-23T06:37:37;100613.00;;;13.68;100.00
44140;BME280;29803;51.048;4.686;2023-04-23T06:40:07;100615.50;;;13.48;100.00
44140;BME280;29803;51.048;4.686;2023-04-23T06:42:37;100609.50;;;13.68;100.00
44140;BME280;29803;51.048;4.686;2023-04-23T06:45:08;100605.94;;;13.89;100.00
44140;BME280;29803;51.048;4.686;2023-04-23T06:47:38;100604.41;;;14.29;100.00
44140;BME280;29803;51.048;4.686;2023-04-23T06:50:09;100601.22;;;14.19;100.00
44140;BME280;29803;51.048;4.686;2023-04-23T06:52:40;100603.06;;;13.90;100.00
44140;BME280;29803;51.048;4.686;2023-04-23T06:55:10;100598.13;;;13.72;100.00
44140;BME280;29803;51.048;4.686;2023-04-23T06:57:41;100593.88;;;14.06;100.00
44140;BME280;29803;51.048;4.686;2023-04-23T07:00:12;100600.88;;;13.79;100.00
44140;BME280;29803;51.048;4.686;2023-04-23T07:02:42;100598.69;;;13.89;100.00
44140;BME280;29803;51.048;4.686;2023-04-23T07:05:13;100599.16;;;13.93;100.00
44140;BME280;29803;51.048;4.686;2023-04-23T07:07:43;100597.47;;;13.92;100.00
44140;BME280;29803;51.048;4.686;2023-04-23T07:10:13;100611.34;;;14.38;100.00
44140;BME280;29803;51.048;4.686;2023-04-23T07:12:44;100597.50;;;15.31;100.00
44140;BME280;29803;51.048;4.686;2023-04-23T07:15:14;100596.94;;;14.53;100.00
44140;BME280;29803;51.048;4.686;2023-04-23T07:17:45;100603.84;;;14.40;100.00
44140;BME280;29803;51.048;4.686;2023-04-23T07:20:15;100595.28;;;14.52;100.00
44140;BME280;29803;51.048;4.686;2023-04-23T07:22:45;100590.13;;;14.63;100.00
44140;BME280;29803;51.048;4.686;2023-04-23T07:25:17;100592.97;;;14.90;100.00
44140;BME280;29803;51.048;4.686;2023-04-23T07:27:47;100589.72;;;15.69;100.00
44140;BME280;29803;51.048;4.686;2023-04-23T07:30:17;100574.13;;;16.11;100.00
44140;BME280;29803;51.048;4.686;2023-04-23T07:32:48;100571.25;;;15.11;100.00
44140;BME280;29803;51.048;4.686;2023-04-23T07:35:18;100573.00;;;15.39;100.00
44140;BME280;29803;51.048;4.686;2023-04-23T07:37:49;100562.88;;;14.93;100.00
44140;BME280;29803;51.048;4.686;2023-04-23T07:40:22;100570.38;;;14.97;100.00
44140;BME280;29803;51.048;4.686;2023-04-23T07:42:53;100558.59;;;15.18;100.00
44140;BME280;29803;51.048;4.686;2023-04-23T07:45:24;100561.34;;;15.32;100.00
44140;BME280;29803;51.048;4.686;2023-04-23T07:47:55;100550.88;;;15.09;100.00
44140;BME280;29803;51.048;4.686;2023-04-23T07:50:25;100560.75;;;15.49;100.00
44140;BME280;29803;51.048;4.686;2023-04-23T07:52:56;100560.78;;;14.95;100.00
44140;BME280;29803;51.048;4.686;2023-04-23T07:55:27;100564.59;;;15.14;100.00
44140;BME280;29803;51.048;4.686;2023-04-23T07:57:57;100557.38;;;15.27;100.00
44140;BME280;29803;51.048;4.686;2023-04-23T08:00:28;100561.97;;;15.34;100.00
44140;BME280;29803;51.048;4.686;2023-04-23T08:02:58;100557.25;;;15.75;100.00
44140;BME280;29803;51.048;4.686;2023-04-23T08:05:35;100562.66;;;15.62;100.00
44140;BME280;29803;51.048;4.686;2023-04-23T08:08:07;100548.88;;;15.50;100.00
44140;BME280;29803;51.048;4.686;2023-04-23T08:10:38;100566.09;;;15.16;100.00
44140;BME280;29803;51.048;4.686;2023-04-23T08:13:09;100563.53;;;15.83;100.00
44140;BME280;29803;51.048;4.686;2023-04-23T08:15:40;100562.03;;;16.33;100.00
44140;BME280;29803;51.048;4.686;2023-04-23T08:18:10;100562.88;;;17.05;100.00
44140;BME280;29803;51.048;4.686;2023-04-23T08:20:41;100561.69;;;16.94;100.00
44140;BME280;29803;51.048;4.686;2023-04-23T08:23:11;100554.25;;;16.56;100.00
44140;BME280;29803;51.048;4.686;2023-04-23T08:25:42;100555.75;;;16.46;100.00
44140;BME280;29803;51.048;4.686;2023-04-23T08:28:12;100555.69;;;16.79;100.00
44140;BME280;29803;51.048;4.686;2023-04-23T08:30:43;100549.44;;;17.23;100.00
44140;BME280;29803;51.048;4.686;2023-04-23T08:33:13;100548.19;;;16.74;100.00
44140;BME280;29803;51.048;4.686;2023-04-23T08:35:43;100555.16;;;16.30;100.00
44140;BME280;29803;51.048;4.686;2023-04-23T08:38:14;100548.13;;;15.90;100.00
44140;BME280;29803;51.048;4.686;2023-04-23T08:40:47;100554.16;;;16.05;100.00
44140;BME280;29803;51.048;4.686;2023-04-23T08:43:18;100537.66;;;16.26;100.00
44140;BME280;29803;51.048;4.686;2023-04-23T08:45:49;100545.81;;;16.00;100.00
44140;BME280;29803;51.048;4.686;2023-04-23T08:48:20;100546.03;;;15.72;100.00
44140;BME280;29803;51.048;4.686;2023-04-23T08:50:50;100550.34;;;15.53;100.00
44140;BME280;29803;51.048;4.686;2023-04-23T08:53:21;100542.28;;;15.73;100.00
44140;BME280;29803;51.048;4.686;2023-04-23T08:55:55;100539.97;;;16.23;100.00
44140;BME280;29803;51.048;4.686;2023-04-23T08:58:25;100541.75;;;16.55;100.00
44140;BME280;29803;51.048;4.686;2023-04-23T09:00:57;100540.91;;;16.68;100.00
44140;BME280;29803;51.048;4.686;2023-04-23T09:03:27;100539.38;;;15.74;100.00
44140;BME280;29803;51.048;4.686;2023-04-23T09:05:58;100522.09;;;15.75;100.00
44140;BME280;29803;51.048;4.686;2023-04-23T09:08:29;100529.97;;;15.44;100.00
44140;BME280;29803;51.048;4.686;2023-04-23T09:11:01;100535.53;;;15.36;100.00
44140;BME280;29803;51.048;4.686;2023-04-23T09:13:32;100529.75;;;15.45;100.00
44140;BME280;29803;51.048;4.686;2023-04-23T09:16:03;100532.09;;;15.88;100.00
44140;BME280;29803;51.048;4.686;2023-04-23T09:18:34;100527.13;;;15.72;100.00
44140;BME280;29803;51.048;4.686;2023-04-23T09:21:04;100516.09;;;15.73;100.00
44140;BME280;29803;51.048;4.686;2023-04-23T09:23:37;100518.78;;;15.67;100.00
44140;BME280;29803;51.048;4.686;2023-04-23T09:26:07;100525.59;;;15.43;100.00
44140;BME280;29803;51.048;4.686;2023-04-23T09:28:38;100524.94;;;15.41;100.00
44140;BME280;29803;51.048;4.686;2023-04-23T09:31:08;100523.50;;;15.38;100.00
44140;BME280;29803;51.048;4.686;2023-04-23T09:33:39;100516.03;;;15.47;100.00
44140;BME280;29803;51.048;4.686;2023-04-23T09:36:10;100514.81;;;15.63;100.00
44140;BME280;29803;51.048;4.686;2023-04-23T09:38:41;100504.81;;;15.43;100.00
44140;BME280;29803;51.048;4.686;2023-04-23T09:41:22;100508.53;;;15.36;100.00
44140;BME280;29803;51.048;4.686;2023-04-23T09:43:53;100502.75;;;15.52;100.00
44140;BME280;29803;51.048;4.686;2023-04-23T09:49:11;100506.88;;;15.41;100.00
44140;BME280;29803;51.048;4.686;2023-04-23T09:51:43;100492.97;;;15.71;100.00
44140;BME280;29803;51.048;4.686;2023-04-23T09:54:16;100493.34;;;16.14;100.00
44140;BME280;29803;51.048;4.686;2023-04-23T09:56:49;100493.34;;;16.21;100.00
44140;BME280;29803;51.048;4.686;2023-04-23T09:59:21;100491.84;;;16.38;100.00
44140;BME280;29803;51.048;4.686;2023-04-23T10:01:52;100490.22;;;16.24;100.00
44140;BME280;29803;51.048;4.686;2023-04-23T10:04:23;100483.59;;;15.60;100.00
44140;BME280;29803;51.048;4.686;2023-04-23T10:06:53;100481.31;;;15.57;100.00
44140;BME280;29803;51.048;4.686;2023-04-23T10:09:25;100482.56;;;15.54;100.00
44140;BME280;29803;51.048;4.686;2023-04-23T10:11:58;100479.19;;;15.26;100.00
44140;BME280;29803;51.048;4.686;2023-04-23T10:14:28;100476.31;;;15.27;100.00
44140;BME280;29803;51.048;4.686;2023-04-23T10:17:00;100473.16;;;15.31;100.00
44140;BME280;29803;51.048;4.686;2023-04-23T10:19:30;100466.53;;;15.40;100.00
44140;BME280;29803;51.048;4.686;2023-04-23T10:22:03;100466.75;;;15.45;100.00
44140;BME280;29803;51.048;4.686;2023-04-23T10:24:37;100456.38;;;15.42;100.00
44140;BME280;29803;51.048;4.686;2023-04-23T10:27:10;100459.28;;;15.80;100.00
44140;BME280;29803;51.048;4.686;2023-04-23T10:29:40;100458.63;;;15.91;100.00
44140;BME280;29803;51.048;4.686;2023-04-23T10:32:11;100460.50;;;15.97;100.00
44140;BME280;29803;51.048;4.686;2023-04-23T10:34:42;100447.75;;;16.24;100.00
44140;BME280;29803;51.048;4.686;2023-04-23T10:37:12;100444.72;;;15.74;100.00
44140;BME280;29803;51.048;4.686;2023-04-23T10:39:45;100429.75;;;15.72;100.00
44140;BME280;29803;51.048;4.686;2023-04-23T10:42:16;100443.25;;;15.78;100.00
44140;BME280;29803;51.048;4.686;2023-04-23T10:44:47;100436.59;;;15.54;100.00
44140;BME280;29803;51.048;4.686;2023-04-23T10:47:17;100425.59;;;15.36;100.00
44140;BME280;29803;51.048;4.686;2023-04-23T10:49:49;100420.38;;;15.48;100.00
44140;BME280;29803;51.048;4.686;2023-04-23T10:52:20;100420.81;;;15.51;100.00
44140;BME280;29803;51.048;4.686;2023-04-23T10:54:58;100421.22;;;15.62;100.00
44140;BME280;29803;51.048;4.686;2023-04-23T10:57:28;100417.47;;;15.76;100.00
44140;BME280;29803;51.048;4.686;2023-04-23T10:59:59;100404.09;;;16.01;100.00
44140;BME280;29803;51.048;4.686;2023-04-23T11:02:41;100407.16;;;16.11;100.00
44140;BME280;29803;51.048;4.686;2023-04-23T11:05:12;100414.31;;;16.57;100.00
44140;BME280;29803;51.048;4.686;2023-04-23T11:10:45;100390.66;;;16.33;100.00
44140;BME280;29803;51.048;4.686;2023-04-23T11:19:00;100371.47;;;15.89;100.00
44140;BME280;29803;51.048;4.686;2023-04-23T11:24:21;100365.88;;;15.77;100.00
44140;BME280;29803;51.048;4.686;2023-04-23T11:26:52;100359.00;;;15.55;100.00
44140;BME280;29803;51.048;4.686;2023-04-23T11:29:25;100356.94;;;15.57;100.00
44140;BME280;29803;51.048;4.686;2023-04-23T11:31:56;100364.84;;;15.45;100.00
44140;BME280;29803;51.048;4.686;2023-04-23T11:34:27;100358.16;;;15.61;100.00
44140;BME280;29803;51.048;4.686;2023-04-23T11:36:58;100351.28;;;15.85;100.00
44140;BME280;29803;51.048;4.686;2023-04-23T11:39:28;100351.09;;;15.80;100.00
44140;BME280;29803;51.048;4.686;2023-04-23T11:41:59;100343.94;;;16.05;100.00
44140;BME280;29803;51.048;4.686;2023-04-23T11:44:32;100349.88;;;16.27;100.00
44140;BME280;29803;51.048;4.686;2023-04-23T11:47:02;100338.47;;;16.19;100.00
44140;BME280;29803;51.048;4.686;2023-04-23T11:49:33;100337.72;;;15.98;100.00
44140;BME280;29803;51.048;4.686;2023-04-23T11:52:05;100319.88;;;16.29;100.00
44140;BME280;29803;51.048;4.686;2023-04-23T11:54:35;100320.91;;;16.73;100.00
44140;BME280;29803;51.048;4.686;2023-04-23T11:57:06;100320.69;;;16.68;100.00
44140;BME280;29803;51.048;4.686;2023-04-23T11:59:37;100307.84;;;16.56;100.00
44140;BME280;29803;51.048;4.686;2023-04-23T12:02:07;100308.16;;;16.42;100.00
44140;BME280;29803;51.048;4.686;2023-04-23T12:04:38;100306.22;;;16.17;100.00
44140;BME280;29803;51.048;4.686;2023-04-23T12:07:08;100305.75;;;16.27;100.00
44140;BME280;29803;51.048;4.686;2023-04-23T12:09:39;100295.13;;;16.25;100.00
44140;BME280;29803;51.048;4.686;2023-04-23T12:12:09;100290.22;;;16.47;100.00
44140;BME280;29803;51.048;4.686;2023-04-23T12:14:40;100298.19;;;16.36;100.00
44140;BME280;29803;51.048;4.686;2023-04-23T12:17:10;100294.16;;;16.13;100.00
44140;BME280;29803;51.048;4.686;2023-04-23T12:19:41;100289.06;;;15.92;100.00
44140;BME280;29803;51.048;4.686;2023-04-23T12:22:13;100277.28;;;15.60;100.00
44140;BME280;29803;51.048;4.686;2023-04-23T12:24:45;100276.09;;;15.42;100.00
44140;BME280;29803;51.048;4.686;2023-04-23T12:27:17;100275.66;;;15.52;100.00
44140;BME280;29803;51.048;4.686;2023-04-23T12:29:58;100281.09;;;15.32;100.00
44140;BME280;29803;51.048;4.686;2023-04-23T12:32:28;100288.38;;;15.25;100.00
44140;BME280;29803;51.048;4.686;2023-04-23T12:34:58;100286.13;;;14.95;100.00
44140;BME280;29803;51.048;4.686;2023-04-23T12:37:29;100281.53;;;14.96;100.00
44140;BME280;29803;51.048;4.686;2023-04-23T12:40:00;100288.41;;;14.92;100.00
44140;BME280;29803;51.048;4.686;2023-04-23T12:42:30;100295.88;;;14.63;100.00
44140;BME280;29803;51.048;4.686;2023-04-23T12:45:10;100301.38;;;14.29;100.00
44140;BME280;29803;51.048;4.686;2023-04-23T12:48:01;100314.06;;;13.80;100.00
44140;BME280;29803;51.048;4.686;2023-04-23T12:50:31;100320.25;;;13.39;100.00
44140;BME280;29803;51.048;4.686;2023-04-23T12:53:02;100325.63;;;13.33;100.00
44140;BME280;29803;51.048;4.686;2023-04-23T12:55:32;100326.31;;;13.41;100.00
44140;BME280;29803;51.048;4.686;2023-04-23T12:58:03;100326.78;;;13.24;100.00
44140;BME280;29803;51.048;4.686;2023-04-23T13:00:33;100322.59;;;12.72;100.00
44140;BME280;29803;51.048;4.686;2023-04-23T13:03:03;100317.31;;;12.85;100.00
44140;BME280;29803;51.048;4.686;2023-04-23T13:05:34;100326.84;;;12.81;100.00
44140;BME280;29803;51.048;4.686;2023-04-23T13:08:04;100320.44;;;12.60;100.00
44140;BME280;29803;51.048;4.686;2023-04-23T13:10:35;100317.22;;;12.72;100.00
44140;BME280;29803;51.048;4.686;2023-04-23T13:13:06;100322.09;;;12.61;100.00
44140;BME280;29803;51.048;4.686;2023-04-23T13:15:36;100318.06;;;12.51;100.00
44140;BME280;29803;51.048;4.686;2023-04-23T13:18:06;100307.16;;;12.59;100.00